sensor_id;sensor_type;location;lat;lon;timestamp;P1;durP1;ratioP1;P2;durP2;ratioP2
11620;SDS011;5866;49.094;11.900;2023-04-25T00:01:49;4.07;;;3.70;;
11620;SDS011;5866;49.094;11.900;2023-04-25T00:04:18;4.93;;;4.23;;
11620;SDS011;5866;49.094;11.900;2023-04-25T00:06:48;4.10;;;3.80;;
11620;SDS011;5866;49.094;11.900;2023-04-25T00:09:16;4.80;;;4.40;;
11620;SDS011;5866;49.094;11.900;2023-04-25T00:11:43;4.17;;;3.80;;
11620;SDS011;5866;49.094;11.900;2023-04-25T00:14:11;4.00;;;3.60;;
11620;SDS011;5866;49.094;11.900;2023-04-25T00:16:39;5.63;;;3.40;;
11620;SDS011;5866;49.094;11.900;2023-04-25T00:19:10;4.50;;;4.10;;
11620;SDS011;5866;49.094;11.900;2023-04-25T00:21:37;4.13;;;3.73;;
11620;SDS011;5866;49.094;11.900;2023-04-25T00:24:06;5.93;;;3.50;;
11620;SDS011;5866;49.094;11.900;2023-04-25T00:26:34;4.53;;;3.77;;
11620;SDS011;5866;49.094;11.900;2023-04-25T00:29:03;3.93;;;3.63;;
11620;SDS011;5866;49.094;11.900;2023-04-25T00:31:30;4.10;;;3.77;;
11620;SDS011;5866;49.094;11.900;2023-04-25T00:33:59;4.03;;;3.70;;
11620;SDS011;5866;49.094;11.900;2023-04-25T00:36:27;4.10;;;3.53;;
11620;SDS011;5866;49.094;11.900;2023-04-25T00:38:54;4.13;;;3.80;;
11620;SDS011;5866;49.094;11.900;2023-04-25T00:41:22;4.30;;;3.90;;
11620;SDS011;5866;49.094;11.900;2023-04-25T00:43:51;4.83;;;3.83;;
11620;SDS011;5866;49.094;11.900;2023-04-25T00:46:19;5.73;;;3.80;;
11620;SDS011;5866;49.094;11.900;2023-04-25T00:48:46;3.83;;;3.43;;
11620;SDS011;5866;49.094;11.900;2023-04-25T00:51:16;4.03;;;3.73;;
11620;SDS011;5866;49.094;11.900;2023-04-25T00:53:47;4.10;;;3.70;;
11620;SDS011;5866;49.094;11.900;2023-04-25T00:56:17;6.00;;;4.00;;
11620;SDS011;5866;49.094;11.900;2023-04-25T00:58:44;6.57;;;3.87;;
11620;SDS011;5866;49.094;11.900;2023-04-25T01:01:12;3.70;;;3.40;;
11620;SDS011;5866;49.094;11.900;2023-04-25T01:03:40;3.53;;;3.23;;
11620;SDS011;5866;49.094;11.900;2023-04-25T01:06:09;4.60;;;3.30;;
11620;SDS011;5866;49.094;11.900;2023-04-25T01:08:39;3.60;;;3.30;;
11620;SDS011;5866;49.094;11.900;2023-04-25T01:11:06;3.53;;;3.23;;
11620;SDS011;5866;49.094;11.900;2023-04-25T01:13:34;3.93;;;3.50;;
11620;SDS011;5866;49.094;11.900;2023-04-25T01:16:02;4.30;;;3.50;;
11620;SDS011;5866;49.094;11.900;2023-04-25T01:18:30;4.10;;;3.67;;
11620;SDS011;5866;49.094;11.900;2023-04-25T01:21:02;4.57;;;4.00;;
11620;SDS011;5866;49.094;11.900;2023-04-25T01:23:33;4.10;;;3.60;;
11620;SDS011;5866;49.094;11.900;2023-04-25T01:26:01;4.37;;;3.97;;
11620;SDS011;5866;49.094;11.900;2023-04-25T01:28:29;3.47;;;3.17;;
11620;SDS011;5866;49.094;11.900;2023-04-25T01:30:57;3.90;;;3.60;;
11620;SDS011;5866;49.094;11.900;2023-04-25T01:33:24;3.87;;;3.47;;
11620;SDS011;5866;49.094;11.900;2023-04-25T01:35:52;4.50;;;3.83;;
11620;SDS011;5866;49.094;11.900;2023-04-25T01:38:22;4.47;;;3.87;;
11620;SDS011;5866;49.094;11.900;2023-04-25T01:40:49;5.27;;;3.77;;
11620;SDS011;5866;49.094;11.900;2023-04-25T01:43:18;4.93;;;3.87;;
11620;SDS011;5866;49.094;11.900;2023-04-25T01:45:45;4.60;;;4.20;;
11620;SDS011;5866;49.094;11.900;2023-04-25T01:48:13;4.87;;;4.03;;
11620;SDS011;5866;49.094;11.900;2023-04-25T01:50:41;6.47;;;3.90;;
11620;SDS011;5866;49.094;11.900;2023-04-25T01:53:09;4.40;;;4.00;;
11620;SDS011;5866;49.094;11.900;2023-04-25T01:55:39;3.87;;;3.50;;
11620;SDS011;5866;49.094;11.900;2023-04-25T01:58:06;4.60;;;4.20;;
11620;SDS011;5866;49.094;11.900;2023-04-25T02:00:36;4.27;;;3.80;;
11620;SDS011;5866;49.094;11.900;2023-04-25T02:03:05;3.60;;;3.30;;
11620;SDS011;5866;49.094;11.900;2023-04-25T02:05:36;3.97;;;3.53;;
11620;SDS011;5866;49.094;11.900;2023-04-25T02:08:05;3.73;;;3.43;;
11620;SDS011;5866;49.094;11.900;2023-04-25T02:10:34;4.47;;;4.07;;
11620;SDS011;5866;49.094;11.900;2023-04-25T02:13:04;4.03;;;3.73;;
11620;SDS011;5866;49.094;11.900;2023-04-25T02:15:31;5.40;;;4.00;;
11620;SDS011;5866;49.094;11.900;2023-04-25T02:17:59;3.60;;;3.30;;
11620;SDS011;5866;49.094;11.900;2023-04-25T02:20:29;3.77;;;3.47;;
11620;SDS011;5866;49.094;11.900;2023-04-25T02:22:57;4.03;;;3.63;;
11620;SDS011;5866;49.094;11.900;2023-04-25T02:25:25;3.77;;;3.30;;
11620;SDS011;5866;49.094;11.900;2023-04-25T02:27:53;4.93;;;3.87;;
11620;SDS011;5866;49.094;11.900;2023-04-25T02:30:22;4.87;;;3.73;;
11620;SDS011;5866;49.094;11.900;2023-04-25T02:32:49;4.30;;;3.77;;
11620;SDS011;5866;49.094;11.900;2023-04-25T02:35:17;3.90;;;3.60;;
11620;SDS011;5866;49.094;11.900;2023-04-25T02:37:45;4.53;;;3.83;;
11620;SDS011;5866;49.094;11.900;2023-04-25T02:40:12;4.23;;;3.83;;
11620;SDS011;5866;49.094;11.900;2023-04-25T02:42:40;4.57;;;4.17;;
11620;SDS011;5866;49.094;11.900;2023-04-25T02:45:08;4.30;;;3.80;;
11620;SDS011;5866;49.094;11.900;2023-04-25T02:47:37;6.20;;;4.07;;
11620;SDS011;5866;49.094;11.900;2023-04-25T02:50:05;5.40;;;4.37;;
11620;SDS011;5866;49.094;11.900;2023-04-25T02:52:33;4.20;;;3.90;;
11620;SDS011;5866;49.094;11.900;2023-04-25T02:55:01;4.83;;;3.90;;
11620;SDS011;5866;49.094;11.900;2023-04-25T02:57:29;4.50;;;4.10;;
11620;SDS011;5866;49.094;11.900;2023-04-25T02:59:56;4.40;;;4.00;;
11620;SDS011;5866;49.094;11.900;2023-04-25T03:02:23;4.43;;;4.03;;
11620;SDS011;5866;49.094;11.900;2023-04-25T03:04:53;5.57;;;5.07;;
11620;SDS011;5866;49.094;11.900;2023-04-25T03:07:20;4.53;;;4.13;;
11620;SDS011;5866;49.094;11.900;2023-04-25T03:09:47;4.30;;;3.90;;
11620;SDS011;5866;49.094;11.900;2023-04-25T03:12:15;4.83;;;4.00;;
11620;SDS011;5866;49.094;11.900;2023-04-25T03:14:43;5.70;;;4.07;;
11620;SDS011;5866;49.094;11.900;2023-04-25T03:17:10;4.13;;;3.83;;
11620;SDS011;5866;49.094;11.900;2023-04-25T03:19:37;4.73;;;4.33;;
11620;SDS011;5866;49.094;11.900;2023-04-25T03:22:06;4.03;;;3.63;;
11620;SDS011;5866;49.094;11.900;2023-04-25T03:24:34;4.77;;;4.30;;
11620;SDS011;5866;49.094;11.900;2023-04-25T03:27:03;7.70;;;3.70;;
11620;SDS011;5866;49.094;11.900;2023-04-25T03:29:30;3.87;;;3.47;;
11620;SDS011;5866;49.094;11.900;2023-04-25T03:31:58;6.10;;;3.87;;
11620;SDS011;5866;49.094;11.900;2023-04-25T03:34:26;5.30;;;4.20;;
11620;SDS011;5866;49.094;11.900;2023-04-25T03:36:54;4.63;;;4.10;;
11620;SDS011;5866;49.094;11.900;2023-04-25T03:39:23;3.90;;;3.50;;
11620;SDS011;5866;49.094;11.900;2023-04-25T03:41:50;5.00;;;4.13;;
11620;SDS011;5866;49.094;11.900;2023-04-25T03:44:18;5.80;;;4.20;;
11620;SDS011;5866;49.094;11.900;2023-04-25T03:46:45;6.07;;;4.00;;
11620;SDS011;5866;49.094;11.900;2023-04-25T03:49:13;5.03;;;4.50;;
11620;SDS011;5866;49.094;11.900;2023-04-25T03:51:44;6.63;;;5.83;;
11620;SDS011;5866;49.094;11.900;2023-04-25T03:54:11;4.53;;;4.13;;
11620;SDS011;5866;49.094;11.900;2023-04-25T03:56:40;4.73;;;3.80;;
11620;SDS011;5866;49.094;11.900;2023-04-25T03:59:08;5.67;;;4.10;;
11620;SDS011;5866;49.094;11.900;2023-04-25T04:01:35;6.53;;;5.73;;
11620;SDS011;5866;49.094;11.900;2023-04-25T04:04:03;5.43;;;4.57;;
11620;SDS011;5866;49.094;11.900;2023-04-25T04:06:31;4.80;;;4.40;;
11620;SDS011;5866;49.094;11.900;2023-04-25T04:08:59;4.77;;;4.30;;
11620;SDS011;5866;49.094;11.900;2023-04-25T04:11:26;5.00;;;4.47;;
11620;SDS011;5866;49.094;11.900;2023-04-25T04:13:55;6.37;;;5.57;;
11620;SDS011;5866;49.094;11.900;2023-04-25T04:16:23;4.87;;;4.47;;
11620;SDS011;5866;49.094;11.900;2023-04-25T04:18:50;4.87;;;4.40;;
11620;SDS011;5866;49.094;11.900;2023-04-25T04:21:18;4.93;;;4.13;;
11620;SDS011;5866;49.094;11.900;2023-04-25T04:23:45;4.80;;;4.40;;
11620;SDS011;5866;49.094;11.900;2023-04-25T04:26:14;5.33;;;4.80;;
11620;SDS011;5866;49.094;11.900;2023-04-25T04:28:42;5.30;;;3.83;;
11620;SDS011;5866;49.094;11.900;2023-04-25T04:31:12;4.60;;;4.20;;
11620;SDS011;5866;49.094;11.900;2023-04-25T04:33:41;4.53;;;4.13;;
11620;SDS011;5866;49.094;11.900;2023-04-25T04:36:09;6.17;;;4.03;;
11620;SDS011;5866;49.094;11.900;2023-04-25T04:38:36;5.43;;;4.23;;
11620;SDS011;5866;49.094;11.900;2023-04-25T04:41:07;5.73;;;4.23;;
11620;SDS011;5866;49.094;11.900;2023-04-25T04:43:35;4.60;;;3.97;;
11620;SDS011;5866;49.094;11.900;2023-04-25T04:46:02;4.47;;;3.77;;
11620;SDS011;5866;49.094;11.900;2023-04-25T04:48:32;6.23;;;4.13;;
11620;SDS011;5866;49.094;11.900;2023-04-25T04:51:00;5.20;;;3.80;;
11620;SDS011;5866;49.094;11.900;2023-04-25T04:53:28;6.17;;;4.50;;
11620;SDS011;5866;49.094;11.900;2023-04-25T04:55:55;4.30;;;3.90;;
11620;SDS011;5866;49.094;11.900;2023-04-25T04:58:23;6.27;;;4.63;;
11620;SDS011;5866;49.094;11.900;2023-04-25T05:00:50;5.33;;;4.83;;
11620;SDS011;5866;49.094;11.900;2023-04-25T05:03:18;7.07;;;4.50;;
11620;SDS011;5866;49.094;11.900;2023-04-25T05:05:47;5.17;;;4.27;;
11620;SDS011;5866;49.094;11.900;2023-04-25T05:08:14;7.40;;;4.10;;
11620;SDS011;5866;49.094;11.900;2023-04-25T05:10:42;5.53;;;3.90;;
11620;SDS011;5866;49.094;11.900;2023-04-25T05:13:09;5.70;;;4.23;;
11620;SDS011;5866;49.094;11.900;2023-04-25T05:15:37;4.50;;;4.10;;
11620;SDS011;5866;49.094;11.900;2023-04-25T05:18:04;4.17;;;3.87;;
11620;SDS011;5866;49.094;11.900;2023-04-25T05:20:32;4.47;;;3.90;;
11620;SDS011;5866;49.094;11.900;2023-04-25T05:23:01;3.90;;;3.50;;
11620;SDS011;5866;49.094;11.900;2023-04-25T05:25:28;3.50;;;3.20;;
11620;SDS011;5866;49.094;11.900;2023-04-25T05:27:56;3.15;;;2.88;;
11620;SDS011;5866;49.094;11.900;2023-04-25T05:30:24;3.55;;;2.70;;
11620;SDS011;5866;49.094;11.900;2023-04-25T05:32:51;3.10;;;2.85;;
11620;SDS011;5866;49.094;11.900;2023-04-25T05:35:19;2.97;;;2.67;;
11620;SDS011;5866;49.094;11.900;2023-04-25T05:37:47;4.13;;;2.78;;
11620;SDS011;5866;49.094;11.900;2023-04-25T05:40:16;3.10;;;2.80;;
11620;SDS011;5866;49.094;11.900;2023-04-25T05:42:43;5.93;;;3.17;;
11620;SDS011;5866;49.094;11.900;2023-04-25T05:45:11;3.15;;;2.67;;
11620;SDS011;5866;49.094;11.900;2023-04-25T05:47:39;3.33;;;2.90;;
11620;SDS011;5866;49.094;11.900;2023-04-25T05:50:07;3.35;;;2.65;;
11620;SDS011;5866;49.094;11.900;2023-04-25T05:52:35;3.85;;;2.95;;
11620;SDS011;5866;49.094;11.900;2023-04-25T05:55:03;3.25;;;2.95;;
11620;SDS011;5866;49.094;11.900;2023-04-25T05:57:32;4.38;;;2.95;;
11620;SDS011;5866;49.094;11.900;2023-04-25T06:00:00;4.38;;;3.08;;
11620;SDS011;5866;49.094;11.900;2023-04-25T06:02:29;3.45;;;3.15;;
11620;SDS011;5866;49.094;11.900;2023-04-25T06:04:57;3.63;;;3.08;;
11620;SDS011;5866;49.094;11.900;2023-04-25T06:07:24;3.88;;;3.50;;
11620;SDS011;5866;49.094;11.900;2023-04-25T06:09:52;3.50;;;3.20;;
11620;SDS011;5866;49.094;11.900;2023-04-25T06:12:19;3.45;;;3.15;;
11620;SDS011;5866;49.094;11.900;2023-04-25T06:14:48;3.83;;;3.50;;
11620;SDS011;5866;49.094;11.900;2023-04-25T06:17:16;3.72;;;3.35;;
11620;SDS011;5866;49.094;11.900;2023-04-25T06:19:43;2.88;;;2.67;;
11620;SDS011;5866;49.094;11.900;2023-04-25T06:22:11;5.05;;;2.97;;
11620;SDS011;5866;49.094;11.900;2023-04-25T06:24:38;3.38;;;3.08;;
11620;SDS011;5866;49.094;11.900;2023-04-25T06:27:06;3.35;;;2.97;;
11620;SDS011;5866;49.094;11.900;2023-04-25T06:29:33;3.72;;;3.42;;
11620;SDS011;5866;49.094;11.900;2023-04-25T06:32:02;4.82;;;3.30;;
11620;SDS011;5866;49.094;11.900;2023-04-25T06:34:30;3.85;;;3.45;;
11620;SDS011;5866;49.094;11.900;2023-04-25T06:36:57;3.83;;;3.13;;
11620;SDS011;5866;49.094;11.900;2023-04-25T06:39:25;3.50;;;3.17;;
11620;SDS011;5866;49.094;11.900;2023-04-25T06:41:52;4.35;;;3.45;;
11620;SDS011;5866;49.094;11.900;2023-04-25T06:44:20;4.20;;;3.25;;
11620;SDS011;5866;49.094;11.900;2023-04-25T06:46:49;4.05;;;3.42;;
11620;SDS011;5866;49.094;11.900;2023-04-25T06:49:18;5.40;;;3.15;;
11620;SDS011;5866;49.094;11.900;2023-04-25T06:51:45;3.63;;;3.33;;
11620;SDS011;5866;49.094;11.900;2023-04-25T06:54:13;3.28;;;2.97;;
11620;SDS011;5866;49.094;11.900;2023-04-25T06:56:40;3.53;;;3.22;;
11620;SDS011;5866;49.094;11.900;2023-04-25T06:59:08;3.78;;;3.10;;
11620;SDS011;5866;49.094;11.900;2023-04-25T07:01:36;3.65;;;3.30;;
11620;SDS011;5866;49.094;11.900;2023-04-25T07:04:03;3.72;;;3.42;;
11620;SDS011;5866;49.094;11.900;2023-04-25T07:06:32;8.65;;;3.30;;
11620;SDS011;5866;49.094;11.900;2023-04-25T07:09:00;3.78;;;3.40;;
11620;SDS011;5866;49.094;11.900;2023-04-25T07:11:28;2.88;;;2.67;;
11620;SDS011;5866;49.094;11.900;2023-04-25T07:13:56;6.00;;;3.50;;
11620;SDS011;5866;49.094;11.900;2023-04-25T07:16:23;3.50;;;3.20;;
11620;SDS011;5866;49.094;11.900;2023-04-25T07:18:51;3.28;;;3.00;;
11620;SDS011;5866;49.094;11.900;2023-04-25T07:21:18;3.10;;;2.80;;
11620;SDS011;5866;49.094;11.900;2023-04-25T07:23:47;3.03;;;2.72;;
11620;SDS011;5866;49.094;11.900;2023-04-25T07:26:14;3.03;;;2.63;;
11620;SDS011;5866;49.094;11.900;2023-04-25T07:28:42;3.03;;;2.80;;
11620;SDS011;5866;49.094;11.900;2023-04-25T07:31:09;3.47;;;3.17;;
11620;SDS011;5866;49.094;11.900;2023-04-25T07:33:37;3.13;;;2.88;;
11620;SDS011;5866;49.094;11.900;2023-04-25T07:36:05;2.67;;;2.47;;
11620;SDS011;5866;49.094;11.900;2023-04-25T07:38:33;3.88;;;3.17;;
11620;SDS011;5866;49.094;11.900;2023-04-25T07:41:02;2.75;;;2.55;;
11620;SDS011;5866;49.094;11.900;2023-04-25T07:43:29;3.70;;;3.40;;
11620;SDS011;5866;49.094;11.900;2023-04-25T07:45:57;3.20;;;2.90;;
11620;SDS011;5866;49.094;11.900;2023-04-25T07:48:24;3.67;;;2.95;;
11620;SDS011;5866;49.094;11.900;2023-04-25T07:50:52;5.82;;;4.38;;
11620;SDS011;5866;49.094;11.900;2023-04-25T07:53:19;5.20;;;3.00;;
11620;SDS011;5866;49.094;11.900;2023-04-25T07:55:47;4.88;;;3.38;;
11620;SDS011;5866;49.094;11.900;2023-04-25T07:58:16;3.42;;;3.03;;
11620;SDS011;5866;49.094;11.900;2023-04-25T08:00:47;4.15;;;3.63;;
11620;SDS011;5866;49.094;11.900;2023-04-25T08:03:16;3.20;;;2.95;;
11620;SDS011;5866;49.094;11.900;2023-04-25T08:05:43;2.78;;;2.53;;
11620;SDS011;5866;49.094;11.900;2023-04-25T08:08:12;4.07;;;2.97;;
11620;SDS011;5866;49.094;11.900;2023-04-25T08:10:40;2.60;;;2.40;;
11620;SDS011;5866;49.094;11.900;2023-04-25T08:13:08;3.17;;;2.97;;
11620;SDS011;5866;49.094;11.900;2023-04-25T08:15:37;3.40;;;2.75;;
11620;SDS011;5866;49.094;11.900;2023-04-25T08:18:04;3.30;;;3.00;;
11620;SDS011;5866;49.094;11.900;2023-04-25T08:20:32;3.47;;;2.75;;
11620;SDS011;5866;49.094;11.900;2023-04-25T08:22:59;3.00;;;2.80;;
11620;SDS011;5866;49.094;11.900;2023-04-25T08:25:27;2.65;;;2.45;;
11620;SDS011;5866;49.094;11.900;2023-04-25T08:27:55;3.67;;;2.88;;
11620;SDS011;5866;49.094;11.900;2023-04-25T08:30:23;2.97;;;2.78;;
11620;SDS011;5866;49.094;11.900;2023-04-25T08:32:52;3.10;;;2.90;;
11620;SDS011;5866;49.094;11.900;2023-04-25T08:35:20;3.05;;;2.85;;
11620;SDS011;5866;49.094;11.900;2023-04-25T08:37:47;3.75;;;3.10;;
11620;SDS011;5866;49.094;11.900;2023-04-25T08:40:15;3.65;;;3.17;;
11620;SDS011;5866;49.094;11.900;2023-04-25T08:42:43;3.15;;;2.95;;
11620;SDS011;5866;49.094;11.900;2023-04-25T08:45:12;3.30;;;3.00;;
11620;SDS011;5866;49.094;11.900;2023-04-25T08:47:40;4.75;;;4.35;;
11620;SDS011;5866;49.094;11.900;2023-04-25T08:50:10;3.15;;;2.92;;
11620;SDS011;5866;49.094;11.900;2023-04-25T08:52:39;2.78;;;2.58;;
11620;SDS011;5866;49.094;11.900;2023-04-25T08:55:11;3.33;;;3.08;;
11620;SDS011;5866;49.094;11.900;2023-04-25T08:57:39;3.00;;;2.60;;
11620;SDS011;5866;49.094;11.900;2023-04-25T09:00:09;3.88;;;3.47;;
11620;SDS011;5866;49.094;11.900;2023-04-25T09:02:38;3.88;;;3.30;;
11620;SDS011;5866;49.094;11.900;2023-04-25T09:05:06;3.72;;;3.42;;
11620;SDS011;5866;49.094;11.900;2023-04-25T09:07:42;4.22;;;3.50;;
11620;SDS011;5866;49.094;11.900;2023-04-25T09:10:10;3.80;;;3.40;;
11620;SDS011;5866;49.094;11.900;2023-04-25T09:12:37;3.80;;;3.50;;
11620;SDS011;5866;49.094;11.900;2023-04-25T09:15:06;3.33;;;3.03;;
11620;SDS011;5866;49.094;11.900;2023-04-25T09:17:35;3.13;;;2.83;;
11620;SDS011;5866;49.094;11.900;2023-04-25T09:20:07;2.72;;;2.53;;
11620;SDS011;5866;49.094;11.900;2023-04-25T09:22:36;3.35;;;3.00;;
11620;SDS011;5866;49.094;11.900;2023-04-25T09:25:09;2.17;;;2.08;;
11620;SDS011;5866;49.094;11.900;2023-04-25T09:27:48;2.92;;;2.72;;
11620;SDS011;5866;49.094;11.900;2023-04-25T09:30:16;2.78;;;2.60;;
11620;SDS011;5866;49.094;11.900;2023-04-25T09:32:44;2.70;;;2.50;;
11620;SDS011;5866;49.094;11.900;2023-04-25T09:35:12;2.90;;;2.70;;
11620;SDS011;5866;49.094;11.900;2023-04-25T09:37:51;5.60;;;3.35;;
11620;SDS011;5866;49.094;11.900;2023-04-25T09:40:20;3.10;;;2.85;;
11620;SDS011;5866;49.094;11.900;2023-04-25T09:42:48;3.45;;;3.10;;
11620;SDS011;5866;49.094;11.900;2023-04-25T09:45:16;3.58;;;2.95;;
11620;SDS011;5866;49.094;11.900;2023-04-25T09:47:44;3.90;;;3.60;;
11620;SDS011;5866;49.094;11.900;2023-04-25T09:50:15;4.75;;;3.28;;
11620;SDS011;5866;49.094;11.900;2023-04-25T09:52:45;3.50;;;3.17;;
11620;SDS011;5866;49.094;11.900;2023-04-25T09:55:12;4.10;;;3.50;;
11620;SDS011;5866;49.094;11.900;2023-04-25T09:57:42;3.90;;;3.53;;
11620;SDS011;5866;49.094;11.900;2023-04-25T10:00:12;5.72;;;5.30;;
11620;SDS011;5866;49.094;11.900;2023-04-25T10:02:42;4.25;;;3.70;;
11620;SDS011;5866;49.094;11.900;2023-04-25T10:05:13;5.00;;;4.60;;
11620;SDS011;5866;49.094;11.900;2023-04-25T10:07:42;4.38;;;3.97;;
11620;SDS011;5866;49.094;11.900;2023-04-25T10:10:09;5.35;;;4.47;;
11620;SDS011;5866;49.094;11.900;2023-04-25T10:12:41;3.95;;;3.53;;
11620;SDS011;5866;49.094;11.900;2023-04-25T10:15:10;4.03;;;3.72;;
11620;SDS011;5866;49.094;11.900;2023-04-25T10:17:39;4.35;;;3.95;;
11620;SDS011;5866;49.094;11.900;2023-04-25T10:20:07;3.50;;;3.20;;
11620;SDS011;5866;49.094;11.900;2023-04-25T10:22:38;5.53;;;3.85;;
11620;SDS011;5866;49.094;11.900;2023-04-25T10:25:08;3.63;;;3.30;;
11620;SDS011;5866;49.094;11.900;2023-04-25T10:27:38;2.92;;;2.67;;
11620;SDS011;5866;49.094;11.900;2023-04-25T10:30:08;3.35;;;2.80;;
11620;SDS011;5866;49.094;11.900;2023-04-25T10:32:38;4.68;;;2.70;;
11620;SDS011;5866;49.094;11.900;2023-04-25T10:35:13;2.33;;;2.13;;
11620;SDS011;5866;49.094;11.900;2023-04-25T10:40:32;2.70;;;2.50;;
11620;SDS011;5866;49.094;11.900;2023-04-25T10:46:03;2.17;;;2.08;;
11620;SDS011;5866;49.094;11.900;2023-04-25T10:48:43;2.53;;;2.33;;
11620;SDS011;5866;49.094;11.900;2023-04-25T10:51:15;3.17;;;2.88;;
11620;SDS011;5866;49.094;11.900;2023-04-25T10:53:44;2.70;;;2.50;;
11620;SDS011;5866;49.094;11.900;2023-04-25T10:56:16;2.88;;;2.58;;
11620;SDS011;5866;49.094;11.900;2023-04-25T10:58:44;2.17;;;2.05;;
11620;SDS011;5866;49.094;11.900;2023-04-25T11:01:19;3.00;;;2.58;;
11620;SDS011;5866;49.094;11.900;2023-04-25T11:03:48;2.50;;;2.20;;
11620;SDS011;5866;49.094;11.900;2023-04-25T11:06:43;2.55;;;2.33;;
11620;SDS011;5866;49.094;11.900;2023-04-25T11:09:26;2.53;;;2.33;;
11620;SDS011;5866;49.094;11.900;2023-04-25T11:11:54;2.70;;;2.50;;
11620;SDS011;5866;49.094;11.900;2023-04-25T11:14:22;3.28;;;2.70;;
11620;SDS011;5866;49.094;11.900;2023-04-25T11:16:53;2.78;;;2.50;;
11620;SDS011;5866;49.094;11.900;2023-04-25T11:19:24;3.33;;;2.50;;
11620;SDS011;5866;49.094;11.900;2023-04-25T11:21:54;2.20;;;2.10;;
11620;SDS011;5866;49.094;11.900;2023-04-25T11:24:25;6.88;;;6.25;;
11620;SDS011;5866;49.094;11.900;2023-04-25T11:26:53;6.68;;;6.30;;
11620;SDS011;5866;49.094;11.900;2023-04-25T11:29:21;3.13;;;2.92;;
11620;SDS011;5866;49.094;11.900;2023-04-25T11:31:50;2.47;;;2.28;;
11620;SDS011;5866;49.094;11.900;2023-04-25T11:34:19;3.50;;;2.22;;
11620;SDS011;5866;49.094;11.900;2023-04-25T11:36:46;2.47;;;2.28;;
11620;SDS011;5866;49.094;11.900;2023-04-25T11:39:14;2.35;;;2.15;;
11620;SDS011;5866;49.094;11.900;2023-04-25T11:41:42;2.40;;;2.20;;
11620;SDS011;5866;49.094;11.900;2023-04-25T11:44:11;2.13;;;2.00;;
11620;SDS011;5866;49.094;11.900;2023-04-25T11:46:38;2.72;;;2.30;;
11620;SDS011;5866;49.094;11.900;2023-04-25T11:49:06;3.08;;;2.80;;
11620;SDS011;5866;49.094;11.900;2023-04-25T11:51:39;3.03;;;2.55;;
11620;SDS011;5866;49.094;11.900;2023-04-25T11:54:06;2.58;;;2.33;;
11620;SDS011;5866;49.094;11.900;2023-04-25T11:56:34;5.43;;;2.75;;
11620;SDS011;5866;49.094;11.900;2023-04-25T11:59:02;2.63;;;2.42;;
11620;SDS011;5866;49.094;11.900;2023-04-25T12:01:33;3.30;;;2.50;;
11620;SDS011;5866;49.094;11.900;2023-04-25T12:04:12;2.50;;;2.30;;
11620;SDS011;5866;49.094;11.900;2023-04-25T12:06:43;5.30;;;3.40;;
11620;SDS011;5866;49.094;11.900;2023-04-25T12:09:14;2.67;;;2.30;;
11620;SDS011;5866;49.094;11.900;2023-04-25T12:11:44;2.20;;;2.10;;
11620;SDS011;5866;49.094;11.900;2023-04-25T12:14:12;2.30;;;2.10;;
11620;SDS011;5866;49.094;11.900;2023-04-25T12:16:48;2.60;;;2.40;;
11620;SDS011;5866;49.094;11.900;2023-04-25T12:19:17;2.75;;;2.30;;
11620;SDS011;5866;49.094;11.900;2023-04-25T12:21:47;2.20;;;2.10;;
11620;SDS011;5866;49.094;11.900;2023-04-25T12:24:25;2.95;;;2.50;;
11620;SDS011;5866;49.094;11.900;2023-04-25T12:26:58;2.63;;;2.42;;
11620;SDS011;5866;49.094;11.900;2023-04-25T12:29:27;3.75;;;2.50;;
11620;SDS011;5866;49.094;11.900;2023-04-25T12:32:07;2.90;;;2.60;;
11620;SDS011;5866;49.094;11.900;2023-04-25T12:34:35;2.92;;;2.53;;
11620;SDS011;5866;49.094;11.900;2023-04-25T12:37:04;3.75;;;2.72;;
11620;SDS011;5866;49.094;11.900;2023-04-25T12:39:31;3.08;;;2.83;;
11620;SDS011;5866;49.094;11.900;2023-04-25T12:41:59;2.65;;;2.45;;
11620;SDS011;5866;49.094;11.900;2023-04-25T12:44:27;3.65;;;2.72;;
11620;SDS011;5866;49.094;11.900;2023-04-25T12:46:54;3.42;;;2.50;;
11620;SDS011;5866;49.094;11.900;2023-04-25T12:49:22;4.10;;;2.55;;
11620;SDS011;5866;49.094;11.900;2023-04-25T12:51:49;3.83;;;2.53;;
11620;SDS011;5866;49.094;11.900;2023-04-25T12:54:19;3.60;;;2.80;;
11620;SDS011;5866;49.094;11.900;2023-04-25T12:56:46;3.85;;;2.63;;
11620;SDS011;5866;49.094;11.900;2023-04-25T12:59:14;3.08;;;2.60;;
11620;SDS011;5866;49.094;11.900;2023-04-25T13:01:41;5.88;;;3.03;;
11620;SDS011;5866;49.094;11.900;2023-04-25T13:04:10;3.10;;;2.80;;
11620;SDS011;5866;49.094;11.900;2023-04-25T13:06:38;3.20;;;2.90;;
11620;SDS011;5866;49.094;11.900;2023-04-25T13:09:05;4.15;;;2.88;;
11620;SDS011;5866;49.094;11.900;2023-04-25T13:11:35;10.20;;;2.92;;
11620;SDS011;5866;49.094;11.900;2023-04-25T13:14:02;4.43;;;3.20;;
11620;SDS011;5866;49.094;11.900;2023-04-25T13:16:30;3.70;;;3.25;;
11620;SDS011;5866;49.094;11.900;2023-04-25T13:18:57;3.22;;;2.92;;
11620;SDS011;5866;49.094;11.900;2023-04-25T13:21:25;3.53;;;3.08;;
11620;SDS011;5866;49.094;11.900;2023-04-25T13:23:53;5.07;;;3.58;;
11620;SDS011;5866;49.094;11.900;2023-04-25T13:26:20;3.97;;;2.58;;
11620;SDS011;5866;49.094;11.900;2023-04-25T13:28:49;3.70;;;2.95;;
11620;SDS011;5866;49.094;11.900;2023-04-25T13:31:17;3.15;;;2.65;;
11620;SDS011;5866;49.094;11.900;2023-04-25T13:33:44;4.00;;;2.75;;
11620;SDS011;5866;49.094;11.900;2023-04-25T13:36:12;2.97;;;2.60;;
11620;SDS011;5866;49.094;11.900;2023-04-25T13:38:39;2.97;;;2.40;;
11620;SDS011;5866;49.094;11.900;2023-04-25T13:41:09;3.95;;;2.38;;
11620;SDS011;5866;49.094;11.900;2023-04-25T13:43:41;4.00;;;2.17;;
11620;SDS011;5866;49.094;11.900;2023-04-25T13:46:10;3.35;;;2.55;;
11620;SDS011;5866;49.094;11.900;2023-04-25T13:48:59;4.43;;;2.42;;
11620;SDS011;5866;49.094;11.900;2023-04-25T13:51:37;3.70;;;2.08;;
11620;SDS011;5866;49.094;11.900;2023-04-25T13:54:05;2.30;;;2.10;;
11620;SDS011;5866;49.094;11.900;2023-04-25T13:56:33;2.58;;;2.38;;
11620;SDS011;5866;49.094;11.900;2023-04-25T13:59:01;5.13;;;2.10;;
11620;SDS011;5866;49.094;11.900;2023-04-25T14:01:30;4.05;;;1.92;;
11620;SDS011;5866;49.094;11.900;2023-04-25T14:04:00;2.45;;;2.05;;
11620;SDS011;5866;49.094;11.900;2023-04-25T14:06:30;2.08;;;1.90;;
11620;SDS011;5866;49.094;11.900;2023-04-25T14:08:58;2.03;;;1.92;;
11620;SDS011;5866;49.094;11.900;2023-04-25T14:11:27;2.88;;;2.17;;
11620;SDS011;5866;49.094;11.900;2023-04-25T14:13:54;1.90;;;1.77;;
11620;SDS011;5866;49.094;11.900;2023-04-25T14:16:22;2.22;;;2.00;;
11620;SDS011;5866;49.094;11.900;2023-04-25T14:18:51;1.92;;;1.83;;
11620;SDS011;5866;49.094;11.900;2023-04-25T14:21:20;2.13;;;2.03;;
11620;SDS011;5866;49.094;11.900;2023-04-25T14:23:47;1.80;;;1.70;;
11620;SDS011;5866;49.094;11.900;2023-04-25T14:26:15;1.88;;;1.77;;
11620;SDS011;5866;49.094;11.900;2023-04-25T14:28:43;2.78;;;2.40;;
11620;SDS011;5866;49.094;11.900;2023-04-25T14:31:10;1.90;;;1.80;;
11620;SDS011;5866;49.094;11.900;2023-04-25T14:33:38;3.70;;;2.78;;
11620;SDS011;5866;49.094;11.900;2023-04-25T14:36:10;1.70;;;1.60;;
11620;SDS011;5866;49.094;11.900;2023-04-25T14:38:37;2.42;;;2.20;;
11620;SDS011;5866;49.094;11.900;2023-04-25T14:41:05;2.10;;;2.00;;
11620;SDS011;5866;49.094;11.900;2023-04-25T14:43:32;2.00;;;1.88;;
11620;SDS011;5866;49.094;11.900;2023-04-25T14:46:00;2.00;;;1.90;;
11620;SDS011;5866;49.094;11.900;2023-04-25T14:48:28;1.95;;;1.75;;
11620;SDS011;5866;49.094;11.900;2023-04-25T14:50:56;1.80;;;1.70;;
11620;SDS011;5866;49.094;11.900;2023-04-25T14:53:25;2.55;;;2.05;;
11620;SDS011;5866;49.094;11.900;2023-04-25T14:55:53;2.05;;;1.95;;
11620;SDS011;5866;49.094;11.900;2023-04-25T14:58:20;2.00;;;1.75;;
11620;SDS011;5866;49.094;11.900;2023-04-25T15:00:48;1.98;;;1.88;;
11620;SDS011;5866;49.094;11.900;2023-04-25T15:03:17;4.82;;;2.00;;